• Join FlightAware (Why Join?)
  • Login
  • US Flag 
03:38AM EDT


 

Airport Tracker/Info


-or-


 

Live Flight TrackerFlight Track Log ✈ AAL243 ✈ 29-Apr-2013 ✈ KMIA - SBBR / BSB

Flight Track Log - Related Links

Times and Time Zones

All times are in EDT time to prevent confusion due to time zone crossing. See the AAL243 flight status page for this flight to view local times or setup timezone preferences in your user account.

Time Position Orientation Groundspeed Altitude Reporting Facility
EDT Latitude Longitude Course Direction KTS MPH feet Rate Location/Type
11:56PM 25.8010 -80.2680 90° East 169 194 600  Level FlightAware
11:56PM 25.7970 -80.2410 99° East 163 188 1,900 1,920 Climbing FlightAware
11:57PM 25.7850 -80.2190 121° Southeast 200 230 2,400 1,620 Climbing FlightAware
11:57PM 25.7710 -80.1890 117° Southeast 219 252 3,400 1,800 Climbing FlightAware
11:58PM 25.7540 -80.1590 122° Southeast 251 289 4,200 1,920 Climbing FlightAware
11:58PM 25.7400 -80.1300 118° Southeast 261 300 5,200 2,400 Climbing FlightAware
11:58PM 25.7180 -80.0980 127° Southeast 268 308 6,400 2,040 Climbing FlightAware
11:59PM 25.6980 -80.0730 132° Southeast 285 328 7,100 2,460 Climbing FlightAware
11:59PM 25.6740 -80.0360 126° Southeast 280 322 8,700 2,700 Climbing FlightAware
12:00AM 25.6530 -80.0060 128° Southeast 292 336 9,600 2,280 Climbing FlightAware
12:01AM 25.6190 -79.9520 125° Southeast 299 344 11,400 1,680 Climbing FlightAware
12:01AM 25.5830 -79.9000 128° Southeast 343 395 12,000 1,740 Climbing FlightAware
12:02AM 25.5380 -79.8350 127° Southeast 347 399 13,900 1,920 Climbing FlightAware
12:03AM 25.5010 -79.7810 127° Southeast 368 423 14,800 1,560 Climbing FlightAware
12:03AM 25.4590 -79.7200 127° Southeast 382 440 16,000 1,860 Climbing FlightAware
12:04AM 25.4080 -79.6460 127° Southeast 399 459 17,500 1,920 Climbing FlightAware
12:05AM 25.3630 -79.5800 127° Southeast 407 468 18,800 1,740 Climbing FlightAware
12:05AM 25.3100 -79.5040 128° Southeast 415 478 20,000 1,620 Climbing FlightAware
12:06AM 25.2640 -79.4360 127° Southeast 428 493 21,100 1,680 Climbing FlightAware
12:07AM 25.2090 -79.3570 128° Southeast 431 496 22,400 1,500 Climbing FlightAware
12:08AM 25.1590 -79.2840 127° Southeast 442 509 23,300 1,320 Climbing FlightAware
12:08AM 25.1110 -79.2140 127° Southeast 456 525 24,200 1,320 Climbing FlightAware
12:09AM 25.0510 -79.1280 128° Southeast 459 528 25,200 1,200 Climbing FlightAware
12:10AM 24.9970 -79.0500 127° Southeast 476 548 25,900 960 Climbing FlightAware
12:11AM 24.9250 -78.9460 127° Southeast 486 559 26,800 660 Climbing FlightAware
12:11AM 24.8690 -78.8620 126° Southeast 492 566 27,000 120 Climbing FlightAware
12:12AM 24.8230 -78.7930 126° Southeast 492 566 27,000  Level FlightAware
12:13AM 24.7780 -78.7240 126° Southeast 492 566 27,000  Level FlightAware
12:13AM 24.7320 -78.6550 126° Southeast 492 566 27,000  Level FlightAware
12:14AM 24.6870 -78.5860 126° Southeast 492 566 27,000  Level FlightAware
12:15AM 24.6300 -78.5000 126° Southeast 492 566 27,000 3,000 Level FlightAware
12:16AM 24.4478 -78.2697 126° Southeast 517 595 33,200 3,180 Climbing Miami Center
12:17AM 24.3611 -78.1478 128° Southeast 517 595 34,100 840 Climbing Miami Center
12:18AM 24.2722 -78.0236 128° Southeast 522 601 35,000 420 Climbing Miami Center
12:19AM 24.1833 -77.8975 128° Southeast 522 601 35,000  Level Miami Center
12:20AM 24.0983 -77.7764 128° Southeast 522 601 35,000  Level Miami Center
12:21AM 24.0072 -77.6506 128° Southeast 517 595 35,000  Level Miami Center
12:22AM 23.9219 -77.5294 128° Southeast 517 595 35,000  Level Miami Center
12:23AM 23.8325 -77.4042 128° Southeast 522 601 35,000  Level Miami Center
12:24AM 23.7453 -77.2811 128° Southeast 522 601 35,000  Level Miami Center
12:25AM 23.6597 -77.1675 129° Southeast 517 595 35,000  Level Miami Center
12:26AM 23.5722 -77.0447 128° Southeast 510 587 35,000  Level Miami Center
12:27AM 23.4847 -76.9247 128° Southeast 510 587 35,000  Level Miami Center
12:28AM 23.3969 -76.8022 128° Southeast 510 587 35,000  Level Miami Center
12:29AM 23.3089 -76.6825 129° Southeast 510 587 35,000  Level Miami Center
12:30AM 23.2211 -76.5606 128° Southeast 510 587 35,000  Level Miami Center
12:31AM 23.1331 -76.4433 129° Southeast 510 587 35,000  Level Miami Center
12:32AM 23.0428 -76.3217 129° Southeast 510 587 35,000  Level Miami Center
12:33AM 22.9522 -76.1981 128° Southeast 515 593 35,000  Level Miami Center
12:34AM 22.8639 -76.0789 129° Southeast 515 593 35,000  Level Miami Center
12:35AM 22.7756 -75.9578 128° Southeast 515 593 35,000  Level Miami Center
12:36AM 22.6892 -75.8392 128° Southeast 515 593 35,000  Level Miami Center
12:37AM 22.6006 -75.7206 129° Southeast 515 593 35,000  Level Miami Center
12:38AM 22.5119 -75.5997 128° Southeast 515 593 35,000  Level Miami Center
12:39AM 22.4231 -75.4839 130° Southeast 509 586 35,000  Level Miami Center
12:40AM 22.3364 -75.3658 128° Southeast 509 586 35,000  Level Miami Center
12:41AM 22.2475 -75.2478 129° Southeast 504 580 35,000  Level Miami Center
12:42AM 22.1625 -75.1344 129° Southeast 504 580 35,000  Level Miami Center
12:43AM 22.0694 -75.0236 132° Southeast 498 573 35,000  Level Miami Center
12:44AM 21.9658 -74.9244 138° Southeast 487 560 35,000  Level Miami Center
12:45AM 21.8622 -74.8275 139° Southeast 487 560 35,000  Level Miami Center
12:46AM 21.7564 -74.7286 139° Southeast 492 566 35,000  Level Miami Center
12:47AM 21.6547 -74.6231 136° Southeast 492 566 35,000  Level Miami Center
12:48AM 21.5489 -74.5308 141° Southeast 492 566 35,000  Level Miami Center
12:49AM 21.4428 -74.4281 138° Southeast 492 566 35,000  Level Miami Center
12:50AM 21.3347 -74.3275 139° Southeast 502 578 35,000  Level Miami Center
12:51AM 21.2289 -74.2292 139° Southeast 508 585 35,000  Level Miami Center
12:52AM 21.1228 -74.1289 139° Southeast 513 590 35,000  Level Miami Center
12:53AM 21.0164 -74.0267 138° Southeast 518 596 35,000  Level Miami Center
12:54AM 20.9081 -73.9267 139° Southeast 513 590 35,000  Level Miami Center
12:55AM 20.7975 -73.8247 139° Southeast 519 597 35,000  Level Miami Center
12:56AM 20.6892 -73.7253 139° Southeast 519 597 35,000  Level Miami Center
12:57AM 20.5808 -73.6236 139° Southeast 519 597 35,000  Level Miami Center
12:58AM 20.4744 -73.5242 139° Southeast 513 590 35,000  Level Miami Center
12:59AM 20.3658 -73.4228 139° Southeast 518 596 35,000  Level Miami Center
01:00AM 20.2569 -73.3217 139° Southeast 518 596 35,000  Level Miami Center
01:01AM 20.1483 -73.2228 139° Southeast 518 596 35,000  Level Miami Center
01:03AM 19.9922 -73.1042 142° Southeast  Level FlightAware Approximate
01:10AM 19.2969 -72.5246 142° Southeast  Level FlightAware Approximate
01:11AM 19.1975 -72.4422 142° Southeast  Level FlightAware Approximate
01:12AM 19.0979 -72.3599 142° Southeast  Level FlightAware Approximate
01:13AM 18.9984 -72.2777 142° Southeast  Level FlightAware Approximate
01:14AM 18.8988 -72.1956 142° Southeast  Level FlightAware Approximate
01:15AM 18.7992 -72.1136 142° Southeast  Level FlightAware Approximate
01:16AM 18.6996 -72.0317 142° Southeast  Level FlightAware Approximate
01:17AM 18.6000 -71.9500 142° Southeast  Level FlightAware Approximate
01:18AM 18.5074 -71.8602 146° Southeast  Level FlightAware Approximate
01:19AM 18.4024 -71.7866 146° Southeast  Level FlightAware Approximate
01:20AM 18.2985 -71.7114 145° Southeast  Level FlightAware Approximate
01:21AM 18.1965 -71.6334 144° Southeast  Level FlightAware Approximate
01:22AM 18.0946 -71.5553 144° Southeast  Level FlightAware Approximate
01:23AM 17.9927 -71.4773 144° Southeast  Level FlightAware Approximate
01:24AM 17.8907 -71.3994 144° Southeast  Level FlightAware Approximate
01:25AM 17.7887 -71.3216 144° Southeast  Level FlightAware Approximate
01:26AM 17.6868 -71.2437 144° Southeast  Level FlightAware Approximate
01:27AM 17.5850 -71.1657 144° Southeast  Level FlightAware Approximate
01:28AM 17.4832 -71.0877 144° Southeast  Level FlightAware Approximate
01:29AM 17.3814 -71.0099 144° Southeast  Level FlightAware Approximate
01:30AM 17.2795 -70.9321 144° Southeast  Level FlightAware Approximate
01:31AM 17.1777 -70.8544 144° Southeast  Level FlightAware Approximate
01:32AM 17.0756 -70.7769 144° Southeast  Level FlightAware Approximate
01:33AM 16.9736 -70.6995 144° Southeast  Level FlightAware Approximate
01:34AM 16.8715 -70.6222 144° Southeast  Level FlightAware Approximate
01:35AM 16.7694 -70.5450 144° Southeast  Level FlightAware Approximate
01:36AM 16.6672 -70.4679 144° Southeast  Level FlightAware Approximate
01:37AM 16.5651 -70.3909 144° Southeast  Level FlightAware Approximate
01:38AM 16.4629 -70.3139 144° Southeast  Level FlightAware Approximate
01:39AM 16.3606 -70.2370 144° Southeast  Level FlightAware Approximate
01:40AM 16.2584 -70.1602 144° Southeast  Level FlightAware Approximate
01:41AM 16.1561 -70.0835 144° Southeast  Level FlightAware Approximate
01:42AM 16.0538 -70.0069 144° Southeast  Level FlightAware Approximate
01:43AM 15.9514 -69.9303 144° Southeast  Level FlightAware Approximate
01:44AM 15.8491 -69.8538 144° Southeast  Level FlightAware Approximate
01:45AM 15.7468 -69.7773 144° Southeast  Level FlightAware Approximate
01:46AM 15.6444 -69.7009 144° Southeast  Level FlightAware Approximate
01:47AM 15.5420 -69.6246 144° Southeast  Level FlightAware Approximate
01:48AM 15.4396 -69.5483 144° Southeast  Level FlightAware Approximate
01:49AM 15.3371 -69.4722 144° Southeast  Level FlightAware Approximate
01:50AM 15.2346 -69.3961 144° Southeast  Level FlightAware Approximate
01:51AM 15.1321 -69.3200 144° Southeast  Level FlightAware Approximate
01:52AM 15.0296 -69.2441 144° Southeast  Level FlightAware Approximate
01:53AM 14.9271 -69.1682 144° Southeast  Level FlightAware Approximate
01:54AM 14.8245 -69.0924 144° Southeast  Level FlightAware Approximate
01:55AM 14.7219 -69.0167 144° Southeast  Level FlightAware Approximate
01:56AM 14.6193 -68.9410 144° Southeast  Level FlightAware Approximate
01:57AM 14.5166 -68.8654 145° Southeast  Level FlightAware Approximate
01:58AM 14.4139 -68.7899 145° Southeast  Level FlightAware Approximate
01:59AM 14.3112 -68.7145 145° Southeast  Level FlightAware Approximate
02:00AM 14.2085 -68.6391 145° Southeast  Level FlightAware Approximate
02:01AM 14.1058 -68.5638 145° Southeast  Level FlightAware Approximate
02:02AM 14.0030 -68.4885 145° Southeast  Level FlightAware Approximate
02:03AM 13.9002 -68.4134 145° Southeast  Level FlightAware Approximate
02:04AM 13.7974 -68.3383 145° Southeast  Level FlightAware Approximate
02:05AM 13.6945 -68.2632 145° Southeast  Level FlightAware Approximate
02:06AM 13.5917 -68.1882 145° Southeast  Level FlightAware Approximate
02:07AM 13.4888 -68.1133 145° Southeast  Level FlightAware Approximate
02:08AM 13.3859 -68.0385 145° Southeast  Level FlightAware Approximate
02:09AM 13.2830 -67.9637 145° Southeast  Level FlightAware Approximate
02:10AM 13.1800 -67.8890 145° Southeast  Level FlightAware Approximate
02:11AM 13.0770 -67.8143 145° Southeast  Level FlightAware Approximate
02:12AM 12.9740 -67.7397 145° Southeast  Level FlightAware Approximate
02:13AM 12.8710 -67.6652 145° Southeast  Level FlightAware Approximate
02:14AM 12.7677 -67.5911 145° Southeast  Level FlightAware Approximate
02:15AM 12.6644 -67.5171 145° Southeast  Level FlightAware Approximate
02:16AM 12.5610 -67.4432 145° Southeast  Level FlightAware Approximate
02:17AM 12.4576 -67.3693 145° Southeast  Level FlightAware Approximate
02:18AM 12.3542 -67.2955 145° Southeast  Level FlightAware Approximate
02:19AM 12.2508 -67.2217 145° Southeast  Level FlightAware Approximate
02:20AM 12.1474 -67.1481 145° Southeast  Level FlightAware Approximate
02:21AM 12.0439 -67.0744 145° Southeast  Level FlightAware Approximate
02:22AM 11.9404 -67.0009 145° Southeast  Level FlightAware Approximate
02:23AM 11.8369 -66.9273 145° Southeast  Level FlightAware Approximate
02:24AM 11.7333 -66.8539 145° Southeast  Level FlightAware Approximate
02:25AM 11.6298 -66.7805 145° Southeast  Level FlightAware Approximate
02:26AM 11.5262 -66.7071 145° Southeast  Level FlightAware Approximate
02:27AM 11.4227 -66.6338 145° Southeast  Level FlightAware Approximate
02:28AM 11.3191 -66.5606 145° Southeast  Level FlightAware Approximate
02:29AM 11.2156 -66.4872 145° Southeast  Level FlightAware Approximate
02:30AM 11.1125 -66.4133 145° Southeast  Level FlightAware Approximate
02:31AM 11.0094 -66.3394 145° Southeast  Level FlightAware Approximate
02:32AM 10.9063 -66.2655 145° Southeast  Level FlightAware Approximate
02:33AM 10.8032 -66.1917 145° Southeast  Level FlightAware Approximate
02:34AM 10.7000 -66.1179 145° Southeast  Level FlightAware Approximate
02:35AM 10.5969 -66.0442 145° Southeast  Level FlightAware Approximate
02:36AM 10.4937 -65.9706 145° Southeast  Level FlightAware Approximate
02:37AM 10.3905 -65.8969 145° Southeast  Level FlightAware Approximate
02:38AM 10.2873 -65.8234 145° Southeast  Level FlightAware Approximate
02:39AM 10.1840 -65.7499 145° Southeast  Level FlightAware Approximate
02:40AM 10.0808 -65.6764 145° Southeast  Level FlightAware Approximate
02:41AM 9.9775 -65.6030 145° Southeast  Level FlightAware Approximate
02:42AM 9.8743 -65.5296 145° Southeast  Level FlightAware Approximate
02:43AM 9.7710 -65.4563 145° Southeast  Level FlightAware Approximate
02:44AM 9.6677 -65.3830 145° Southeast  Level FlightAware Approximate
02:45AM 9.5643 -65.3098 145° Southeast  Level FlightAware Approximate
02:46AM 9.4610 -65.2366 145° Southeast  Level FlightAware Approximate
02:47AM 9.3576 -65.1635 145° Southeast  Level FlightAware Approximate
02:48AM 9.2543 -65.0904 145° Southeast  Level FlightAware Approximate
02:49AM 9.1509 -65.0173 145° Southeast  Level FlightAware Approximate
02:50AM 9.0468 -64.9453 146° Southeast  Level FlightAware Approximate
02:51AM 8.9427 -64.8733 146° Southeast  Level FlightAware Approximate
02:52AM 8.8386 -64.8014 146° Southeast  Level FlightAware Approximate
02:53AM 8.7345 -64.7295 146° Southeast  Level FlightAware Approximate
02:54AM 8.6303 -64.6576 146° Southeast  Level FlightAware Approximate
02:55AM 8.5262 -64.5858 146° Southeast  Level FlightAware Approximate
02:56AM 8.4221 -64.5139 146° Southeast  Level FlightAware Approximate
02:57AM 8.3182 -64.4418 146° Southeast  Level FlightAware Approximate
02:58AM 8.2143 -64.3697 146° Southeast  Level FlightAware Approximate
02:59AM 8.1104 -64.2976 146° Southeast  Level FlightAware Approximate
03:00AM 8.0064 -64.2256 146° Southeast  Level FlightAware Approximate
03:01AM 7.9025 -64.1536 146° Southeast  Level FlightAware Approximate
03:02AM 7.7985 -64.0816 146° Southeast  Level FlightAware Approximate
03:03AM 7.6946 -64.0097 146° Southeast  Level FlightAware Approximate
03:04AM 7.5906 -63.9378 146° Southeast  Level FlightAware Approximate
03:05AM 7.4866 -63.8660 146° Southeast  Level FlightAware Approximate
03:06AM 7.3825 -63.7942 146° Southeast  Level FlightAware Approximate
03:07AM 7.2785 -63.7224 146° Southeast  Level FlightAware Approximate
03:08AM 7.1745 -63.6506 146° Southeast  Level FlightAware Approximate
03:09AM 7.0705 -63.5789 146° Southeast  Level FlightAware Approximate
03:10AM 6.9664 -63.5072 146° Southeast  Level FlightAware Approximate
03:11AM 6.8623 -63.4356 146° Southeast  Level FlightAware Approximate
03:12AM 6.7583 -63.3639 146° Southeast  Level FlightAware Approximate
03:13AM 6.6542 -63.2924 146° Southeast  Level FlightAware Approximate
03:14AM 6.5501 -63.2208 146° Southeast  Level FlightAware Approximate
03:15AM 6.4460 -63.1493 146° Southeast  Level FlightAware Approximate
03:16AM 6.3424 -63.0781 145° Southeast  Level FlightAware Approximate
03:17AM 6.2391 -63.0064 145° Southeast  Level FlightAware Approximate
03:18AM 6.1358 -62.9348 145° Southeast  Level FlightAware Approximate
03:19AM 6.0325 -62.8633 145° Southeast  Level FlightAware Approximate
03:20AM 5.9292 -62.7917 145° Southeast  Level FlightAware Approximate
03:21AM 5.8259 -62.7202 145° Southeast  Level FlightAware Approximate
03:22AM 5.7225 -62.6487 145° Southeast  Level FlightAware Approximate
03:23AM 5.6192 -62.5773 145° Southeast  Level FlightAware Approximate
03:24AM 5.5158 -62.5059 145° Southeast  Level FlightAware Approximate
03:25AM 5.4124 -62.4344 145° Southeast  Level FlightAware Approximate
03:26AM 5.3091 -62.3631 145° Southeast  Level FlightAware Approximate
03:27AM 5.2057 -62.2917 145° Southeast  Level FlightAware Approximate
03:28AM 5.1023 -62.2204 146° Southeast  Level FlightAware Approximate
03:29AM 4.9989 -62.1491 146° Southeast  Level FlightAware Approximate
03:30AM 4.8955 -62.0778 146° Southeast  Level FlightAware Approximate
03:31AM 4.7921 -62.0065 146° Southeast  Level FlightAware Approximate
03:32AM 4.6887 -61.9352 146° Southeast  Level FlightAware Approximate
03:33AM 4.5852 -61.8640 146° Southeast  Level FlightAware Approximate
03:34AM 4.4818 -61.7928 146° Southeast  Level FlightAware Approximate
03:35AM 4.3783 -61.7216 146° Southeast  Level FlightAware Approximate
03:36AM 4.2749 -61.6505 146° Southeast  Level FlightAware Approximate
03:37AM 4.1711 -61.5797 146° Southeast  Level FlightAware Approximate
03:38AM 4.0673 -61.5092 146° Southeast  Level FlightAware Approximate
03:39AM 3.9634 -61.4386 146° Southeast  Level FlightAware Approximate
03:40AM 3.8596 -61.3680 146° Southeast  Level FlightAware Approximate
03:41AM 3.7557 -61.2975 146° Southeast  Level FlightAware Approximate
03:42AM 3.6519 -61.2270 146° Southeast  Level FlightAware Approximate
03:43AM 3.5480 -61.1565 146° Southeast  Level FlightAware Approximate
03:44AM 3.4441 -61.0861 146° Southeast  Level FlightAware Approximate
03:45AM 3.3403 -61.0156 146° Southeast  Level FlightAware Approximate
03:46AM 3.2364 -60.9452 146° Southeast  Level FlightAware Approximate
03:47AM 3.1325 -60.8747 146° Southeast  Level FlightAware Approximate
03:48AM 3.0286 -60.8043 146° Southeast  Level FlightAware Approximate
03:49AM 2.9247 -60.7339 146° Southeast  Level FlightAware Approximate
03:50AM 2.8207 -60.6636 146° Southeast  Level FlightAware Approximate
03:51AM 2.7167 -60.5934 146° Southeast  Level FlightAware Approximate
03:52AM 2.6127 -60.5232 146° Southeast  Level FlightAware Approximate
03:53AM 2.5087 -60.4530 146° Southeast  Level FlightAware Approximate
03:54AM 2.4046 -60.3829 146° Southeast  Level FlightAware Approximate
03:55AM 2.3006 -60.3127 146° Southeast  Level FlightAware Approximate
03:56AM 2.1965 -60.2426 146° Southeast  Level FlightAware Approximate
03:57AM 2.0923 -60.1727 146° Southeast  Level FlightAware Approximate
03:58AM 1.9879 -60.1032 146° Southeast  Level FlightAware Approximate
03:59AM 1.8834 -60.0336 146° Southeast  Level FlightAware Approximate
04:00AM 1.7790 -59.9641 146° Southeast  Level FlightAware Approximate
04:01AM 1.6745 -59.8946 146° Southeast  Level FlightAware Approximate
04:02AM 1.5700 -59.8251 146° Southeast  Level FlightAware Approximate
04:03AM 1.4656 -59.7556 146° Southeast  Level FlightAware Approximate
04:04AM 1.3611 -59.6862 146° Southeast  Level FlightAware Approximate
04:05AM 1.2566 -59.6167 146° Southeast  Level FlightAware Approximate
04:06AM 1.1522 -59.5472 146° Southeast  Level FlightAware Approximate
04:07AM 1.0477 -59.4777 146° Southeast  Level FlightAware Approximate
04:08AM 0.9432 -59.4083 146° Southeast  Level FlightAware Approximate
04:09AM 0.8388 -59.3388 146° Southeast  Level FlightAware Approximate
04:10AM 0.7343 -59.2694 146° Southeast  Level FlightAware Approximate
04:11AM 0.6298 -59.1999 146° Southeast  Level FlightAware Approximate
04:12AM 0.5253 -59.1305 146° Southeast  Level FlightAware Approximate
04:13AM 0.4209 -59.0610 146° Southeast  Level FlightAware Approximate
04:14AM 0.3164 -58.9916 146° Southeast  Level FlightAware Approximate
04:15AM 0.2119 -58.9222 146° Southeast  Level FlightAware Approximate
04:16AM 0.1074 -58.8527 146° Southeast  Level FlightAware Approximate
04:17AM 0.0029 -58.7833 146° Southeast  Level FlightAware Approximate
04:18AM -0.1015 -58.7138 146° Southeast  Level FlightAware Approximate
04:19AM -0.2060 -58.6444 146° Southeast  Level FlightAware Approximate
04:20AM -0.3105 -58.5750 146° Southeast  Level FlightAware Approximate
04:21AM -0.4150 -58.5055 146° Southeast  Level FlightAware Approximate
04:22AM -0.5195 -58.4361 146° Southeast  Level FlightAware Approximate
04:23AM -0.6239 -58.3666 146° Southeast  Level FlightAware Approximate
04:24AM -0.7284 -58.2972 146° Southeast  Level FlightAware Approximate
04:25AM -0.8329 -58.2277 146° Southeast  Level FlightAware Approximate
04:26AM -0.9374 -58.1583 146° Southeast  Level FlightAware Approximate
04:27AM -1.0418 -58.0888 146° Southeast  Level FlightAware Approximate
04:28AM -1.1463 -58.0193 146° Southeast  Level FlightAware Approximate
04:29AM -1.2508 -57.9499 146° Southeast  Level FlightAware Approximate
04:30AM -1.3552 -57.8804 146° Southeast  Level FlightAware Approximate
04:31AM -1.4597 -57.8109 146° Southeast  Level FlightAware Approximate
04:32AM -1.5642 -57.7414 146° Southeast  Level FlightAware Approximate
04:33AM -1.6686 -57.6719 146° Southeast  Level FlightAware Approximate
04:34AM -1.7731 -57.6024 146° Southeast  Level FlightAware Approximate
04:35AM -1.8775 -57.5329 146° Southeast  Level FlightAware Approximate
04:36AM -1.9820 -57.4634 146° Southeast  Level FlightAware Approximate
04:37AM -2.0864 -57.3939 146° Southeast  Level FlightAware Approximate
04:38AM -2.1909 -57.3243 146° Southeast  Level FlightAware Approximate
04:39AM -2.2953 -57.2548 146° Southeast  Level FlightAware Approximate
04:40AM -2.3998 -57.1852 146° Southeast  Level FlightAware Approximate
04:41AM -2.5042 -57.1157 146° Southeast  Level FlightAware Approximate
04:42AM -2.6086 -57.0461 146° Southeast  Level FlightAware Approximate
04:43AM -2.7131 -56.9765 146° Southeast  Level FlightAware Approximate
04:44AM -2.8173 -56.9071 146° Southeast  Level FlightAware Approximate
04:45AM -2.9214 -56.8376 146° Southeast  Level FlightAware Approximate
04:46AM -3.0256 -56.7681 146° Southeast  Level FlightAware Approximate
04:47AM -3.1298 -56.6987 146° Southeast  Level FlightAware Approximate
04:48AM -3.2339 -56.6292 146° Southeast  Level FlightAware Approximate
04:49AM -3.3381 -56.5597 146° Southeast  Level FlightAware Approximate
04:50AM -3.4422 -56.4902 146° Southeast  Level FlightAware Approximate
04:51AM -3.5464 -56.4206 146° Southeast  Level FlightAware Approximate
04:52AM -3.6505 -56.3511 146° Southeast  Level FlightAware Approximate
04:53AM -3.7546 -56.2815 146° Southeast  Level FlightAware Approximate
04:54AM -3.8588 -56.2119 146° Southeast  Level FlightAware Approximate
04:55AM -3.9629 -56.1423 146° Southeast  Level FlightAware Approximate
04:56AM -4.0670 -56.0727 146° Southeast  Level FlightAware Approximate
04:57AM -4.1711 -56.0031 146° Southeast  Level FlightAware Approximate
04:58AM -4.2752 -55.9334 146° Southeast  Level FlightAware Approximate
04:59AM -4.3793 -55.8638 146° Southeast  Level FlightAware Approximate
05:00AM -4.4834 -55.7941 146° Southeast  Level FlightAware Approximate
05:01AM -4.5875 -55.7244 146° Southeast  Level FlightAware Approximate
05:02AM -4.6915 -55.6546 146° Southeast  Level FlightAware Approximate
05:03AM -4.7956 -55.5849 146° Southeast  Level FlightAware Approximate
05:04AM -4.8997 -55.5151 146° Southeast  Level FlightAware Approximate
05:05AM -5.0037 -55.4453 146° Southeast  Level FlightAware Approximate
05:06AM -5.1078 -55.3755 146° Southeast  Level FlightAware Approximate
05:07AM -5.2118 -55.3057 146° Southeast  Level FlightAware Approximate
05:08AM -5.3159 -55.2358 146° Southeast  Level FlightAware Approximate
05:09AM -5.4199 -55.1659 146° Southeast  Level FlightAware Approximate
05:10AM -5.5239 -55.0960 146° Southeast  Level FlightAware Approximate
05:11AM -5.6279 -55.0261 146° Southeast  Level FlightAware Approximate
05:12AM -5.7319 -54.9561 146° Southeast  Level FlightAware Approximate
05:13AM -5.8359 -54.8861 146° Southeast  Level FlightAware Approximate
05:14AM -5.9399 -54.8161 146° Southeast  Level FlightAware Approximate
05:15AM -6.0439 -54.7461 146° Southeast  Level FlightAware Approximate
05:16AM -6.1478 -54.6760 146° Southeast  Level FlightAware Approximate
05:17AM -6.2518 -54.6059 146° Southeast  Level FlightAware Approximate
05:18AM -6.3558 -54.5358 146° Southeast  Level FlightAware Approximate
05:19AM -6.4597 -54.4657 146° Southeast  Level FlightAware Approximate
05:20AM -6.5636 -54.3955 146° Southeast  Level FlightAware Approximate
05:21AM -6.6675 -54.3253 146° Southeast  Level FlightAware Approximate
05:22AM -6.7715 -54.2550 146° Southeast  Level FlightAware Approximate
05:23AM -6.8753 -54.1848 146° Southeast  Level FlightAware Approximate
05:24AM -6.9792 -54.1145 146° Southeast  Level FlightAware Approximate
05:25AM -7.0831 -54.0441 146° Southeast  Level FlightAware Approximate
05:26AM -7.1870 -53.9738 146° Southeast  Level FlightAware Approximate
05:27AM -7.2909 -53.9034 146° Southeast  Level FlightAware Approximate
05:28AM -7.3947 -53.8330 146° Southeast  Level FlightAware Approximate
05:29AM -7.4985 -53.7625 146° Southeast  Level FlightAware Approximate
05:30AM -7.6024 -53.6920 146° Southeast  Level FlightAware Approximate
05:31AM -7.7059 -53.6217 146° Southeast  Level FlightAware Approximate
05:32AM -7.8095 -53.5513 146° Southeast  Level FlightAware Approximate
05:33AM -7.9130 -53.4808 146° Southeast  Level FlightAware Approximate
05:34AM -8.0166 -53.4104 146° Southeast  Level FlightAware Approximate
05:35AM -8.1201 -53.3399 146° Southeast  Level FlightAware Approximate
05:36AM -8.2236 -53.2693 146° Southeast  Level FlightAware Approximate
05:37AM -8.3271 -53.1988 146° Southeast  Level FlightAware Approximate
05:38AM -8.4305 -53.1282 146° Southeast  Level FlightAware Approximate
05:39AM -8.5340 -53.0575 146° Southeast  Level FlightAware Approximate
05:40AM -8.6375 -52.9868 146° Southeast  Level FlightAware Approximate
05:41AM -8.7409 -52.9161 146° Southeast  Level FlightAware Approximate
05:42AM -8.8443 -52.8454 146° Southeast  Level FlightAware Approximate
05:43AM -8.9478 -52.7746 146° Southeast  Level FlightAware Approximate
05:44AM -9.0512 -52.7037 146° Southeast  Level FlightAware Approximate
05:45AM -9.1546 -52.6328 146° Southeast  Level FlightAware Approximate
05:46AM -9.2582 -52.5617 146° Southeast  Level FlightAware Approximate
05:47AM -9.3618 -52.4906 146° Southeast  Level FlightAware Approximate
05:48AM -9.4654 -52.4194 146° Southeast  Level FlightAware Approximate
05:49AM -9.5690 -52.3482 146° Southeast  Level FlightAware Approximate
05:50AM -9.6725 -52.2770 146° Southeast  Level FlightAware Approximate
05:51AM -9.7761 -52.2056 146° Southeast  Level FlightAware Approximate
05:52AM -9.8796 -52.1343 146° Southeast  Level FlightAware Approximate
05:53AM -9.9831 -52.0629 146° Southeast  Level FlightAware Approximate
05:54AM -10.0866 -51.9915 146° Southeast  Level FlightAware Approximate
05:55AM -10.1901 -51.9200 146° Southeast  Level FlightAware Approximate
05:56AM -10.2936 -51.8484 146° Southeast  Level FlightAware Approximate
05:57AM -10.3971 -51.7768 146° Southeast  Level FlightAware Approximate
05:58AM -10.5005 -51.7052 146° Southeast  Level FlightAware Approximate
05:59AM -10.6039 -51.6335 146° Southeast  Level FlightAware Approximate
06:00AM -10.7073 -51.5618 146° Southeast  Level FlightAware Approximate
06:01AM -10.8107 -51.4900 146° Southeast  Level FlightAware Approximate
06:02AM -10.9141 -51.4182 146° Southeast  Level FlightAware Approximate
06:03AM -11.0175 -51.3463 146° Southeast  Level FlightAware Approximate
06:04AM -11.1208 -51.2744 146° Southeast  Level FlightAware Approximate
06:05AM -11.2241 -51.2024 146° Southeast  Level FlightAware Approximate
06:06AM -11.3275 -51.1304 146° Southeast  Level FlightAware Approximate
06:07AM -11.4307 -51.0583 146° Southeast  Level FlightAware Approximate
06:08AM -11.5340 -50.9862 146° Southeast  Level FlightAware Approximate
06:09AM -11.6373 -50.9140 146° Southeast  Level FlightAware Approximate
06:10AM -11.7405 -50.8418 146° Southeast  Level FlightAware Approximate
06:10AM -12.8470 -51.0070 146° Southeast 468 539 39,000  Level FlightAware
06:11AM -11.8438 -50.7695 146° Southeast  Level FlightAware Approximate
06:11AM -12.8930 -50.9630 137° Southeast 468 539 39,000  Level FlightAware
06:11AM -12.9660 -50.8940 137° Southeast 468 539 39,000  Level FlightAware
06:12AM -13.0360 -50.8240 136° Southeast 469 540 39,000  Level FlightAware
06:13AM -13.0890 -50.7720 136° Southeast 469 540 39,000  Level FlightAware
06:14AM -13.1430 -50.7190 136° Southeast 469 540 39,000  Level FlightAware
06:14AM -13.1960 -50.6660 136° Southeast 469 540 39,000  Level FlightAware
06:15AM -13.2490 -50.6140 136° Southeast 469 540 39,000  Level FlightAware
06:16AM -13.3150 -50.5480 136° Southeast 469 540 39,000  Level FlightAware
06:16AM -13.3680 -50.4950 136° Southeast 469 540 39,000  Level FlightAware
06:17AM -13.4210 -50.4430 136° Southeast 469 540 39,000  Level FlightAware
06:18AM -13.4740 -50.3900 136° Southeast 469 540 39,000  Level FlightAware
06:18AM -13.5270 -50.3370 136° Southeast 469 540 39,000  Level FlightAware
06:19AM -13.5940 -50.2710 136° Southeast 469 540 39,000  Level FlightAware
06:20AM -13.6470 -50.2190 136° Southeast 469 540 39,000  Level FlightAware
06:21AM -13.7000 -50.1660 136° Southeast 469 540 39,000  Level FlightAware
06:21AM -13.9060 -49.9840 139° Southeast 471 542 39,000  Level FlightAware
06:22AM -13.9880 -49.9040 137° Southeast 470 541 39,000  Level FlightAware
06:23AM -14.0410 -49.8510 136° Southeast 470 541 39,000  Level FlightAware
06:24AM -14.0940 -49.7980 136° Southeast 470 541 39,000  Level FlightAware
06:24AM -14.1480 -49.7450 136° Southeast 470 541 39,000  Level FlightAware
06:25AM -14.2140 -49.6790 136° Southeast 470 541 39,000  Level FlightAware
06:26AM -14.2670 -49.6260 136° Southeast 470 541 39,000  Level FlightAware
06:26AM -14.3200 -49.5730 136° Southeast 470 541 39,000  Level FlightAware
06:27AM -14.3740 -49.5200 136° Southeast 470 541 39,000  Level FlightAware
06:28AM -14.4270 -49.4660 135° Southeast 470 541 39,000  Level FlightAware
06:29AM -14.4930 -49.4000 136° Southeast 470 541 39,000  Level FlightAware
06:29AM -14.6420 -49.2640 139° Southeast 468 539 39,000 -120 Level FlightAware
06:30AM -14.7230 -49.2030 144° Southeast 467 537 38,900 -2,100 Descending FlightAware
06:31AM -14.8950 -49.1210 155° Southeast 477 549 34,400 -3,000 Descending FlightAware
06:32AM -14.9850 -49.0740 153° Southeast 468 539 32,500 -3,120 Descending FlightAware
06:33AM -15.0650 -49.0320 153° Southeast 471 542 30,000 -3,720 Descending FlightAware
06:33AM -15.1440 -48.9900 153° Southeast 470 541 27,600 -2,940 Descending FlightAware
06:34AM -15.2230 -48.9380 148° Southeast 462 532 25,900 -2,220 Descending FlightAware
06:35AM -15.2800 -48.8680 130° Southeast 456 525 24,500 -1,680 Descending FlightAware
06:36AM -15.3270 -48.7990 125° Southeast 433 498 23,700 -1,380 Descending FlightAware
06:36AM -15.3790 -48.7250 126° Southeast 412 474 22,600 -1,380 Descending FlightAware
06:37AM -15.4230 -48.6600 125° Southeast 430 495 21,800 -1,620 Descending FlightAware
06:38AM -15.4710 -48.5910 126° Southeast 435 501 20,500 -1,500 Descending FlightAware
06:38AM -15.5060 -48.5110 114° Southeast 405 466 19,700 -1,440 Descending FlightAware
06:39AM -15.5280 -48.4370 107° East 390 449 18,500 -1,380 Descending FlightAware
06:40AM -15.5530 -48.3590 108° East 360 414 17,800 -1,020 Descending FlightAware
06:40AM -15.5720 -48.2990 108° East 344 396 17,100 -1,020 Descending FlightAware
06:41AM -15.5930 -48.2360 109° East 328 377 16,500 -660 Descending FlightAware
06:42AM -15.6090 -48.1780 106° East 296 341 16,200 -900 Descending FlightAware
06:43AM -15.6270 -48.1190 108° East 282 325 15,300 -1,080 Descending FlightAware
06:43AM -15.6430 -48.0670 108° East 263 303 14,700 -960 Descending FlightAware
06:44AM -15.6570 -48.0210 108° East 258 297 14,000 -960 Descending FlightAware
06:45AM -15.6690 -47.9790 107° East 234 269 13,500 -1,200 Descending FlightAware
06:45AM -15.6820 -47.9300 105° East 239 275 12,400 -1,320 Descending FlightAware
06:46AM -15.6970 -47.8800 107° East 235 270 11,600 -1,200 Descending FlightAware
06:47AM -15.7070 -47.8420 105° East 236 272 10,800 -1,140 Descending FlightAware
06:47AM -15.7230 -47.7910 108° East 219 252 10,000 -1,080 Descending FlightAware
06:48AM -15.7310 -47.7650 108° East 218 251 9,500 -1,140 Descending FlightAware
06:48AM -15.7400 -47.7350 107° East 211 243 9,000 -1,200 Descending FlightAware
06:49AM -15.7520 -47.7080 115° Southeast 211 243 8,300 -780 Descending FlightAware
06:49AM -15.7660 -47.6890 127° Southeast 211 243 8,300 -900 Level FlightAware
06:50AM -15.7840 -47.7020 215° Southwest 203 234 7,700 -1,500 Descending FlightAware
06:50AM -15.8120 -47.7140 202° Southwest 192 221 7,200 -1,140 Descending FlightAware
06:50AM -15.8320 -47.7220 201° Southwest 192 221 6,700 -780 Descending FlightAware
06:51AM -15.8610 -47.7370 206° Southwest 191 220 6,400 -720 Descending FlightAware
06:51AM -15.8510 -47.7660 290° West 198 228 6,000 -480 Descending FlightAware
06:52AM -15.8490 -47.7960 274° West 186 214 6,000  Level FlightAware
06:55AM -15.8626 -47.9127 263° West  Level Estimated